createdAt,value
2017-10-26T00:05:13.062Z,96648
2017-10-26T00:10:41.213Z,96639
2017-10-26T00:16:11.356Z,96645
2017-10-26T00:21:39.517Z,96642
2017-10-26T00:27:07.692Z,96650
2017-10-26T00:32:35.816Z,96666
2017-10-26T00:38:03.962Z,96674
2017-10-26T00:43:34.058Z,96671
2017-10-26T00:49:02.213Z,96663
2017-10-26T00:54:30.341Z,96668
2017-10-26T00:59:58.470Z,96660
2017-10-26T01:05:27.392Z,96656
2017-10-26T01:10:56.286Z,96654
2017-10-26T01:16:24.429Z,96646
2017-10-26T01:21:52.589Z,96652
2017-10-26T01:27:20.743Z,96642
2017-10-26T01:32:48.966Z,96647
2017-10-26T01:38:17.108Z,96627
2017-10-26T01:43:46.061Z,96652
2017-10-26T01:49:14.219Z,96640
2017-10-26T01:54:42.417Z,96646
2017-10-26T02:00:10.564Z,96654
2017-10-26T02:05:39.463Z,96655
2017-10-26T02:11:07.607Z,96658
2017-10-26T02:16:36.529Z,96643
2017-10-26T02:22:04.678Z,96642
2017-10-26T02:27:32.825Z,96634
2017-10-26T02:33:00.994Z,96620
2017-10-26T02:38:29.146Z,96614
2017-10-26T02:43:57.297Z,96617
2017-10-26T02:49:25.582Z,96609
2017-10-26T02:54:53.874Z,96619
2017-10-26T03:00:22.107Z,96615
2017-10-26T03:05:50.390Z,96618
2017-10-26T03:11:18.638Z,96625
2017-10-26T03:16:46.912Z,96635
2017-10-26T03:22:15.077Z,96632
2017-10-26T03:27:43.994Z,96637
2017-10-26T03:33:12.166Z,96647
2017-10-26T03:38:40.349Z,96645
2017-10-26T03:44:08.519Z,96648
2017-10-26T03:49:36.663Z,96635
2017-10-26T03:55:04.808Z,96644
2017-10-26T04:00:39.825Z,96634
2017-10-26T04:06:07.976Z,96625
2017-10-26T04:11:36.135Z,96628
2017-10-26T04:17:04.316Z,96617
2017-10-26T04:22:32.446Z,96614
2017-10-26T04:28:01.212Z,96613
2017-10-26T04:33:30.259Z,96613
2017-10-26T04:38:58.456Z,96611
2017-10-26T04:44:26.597Z,96604
2017-10-26T04:49:54.772Z,96611
2017-10-26T04:55:22.930Z,96606
2017-10-26T05:00:51.075Z,96606
2017-10-26T05:06:19.378Z,96601
2017-10-26T05:11:47.504Z,96604
2017-10-26T05:17:15.639Z,96598
2017-10-26T05:22:43.784Z,96610
2017-10-26T05:28:11.942Z,96605
2017-10-26T05:33:40.150Z,96606
2017-10-26T05:39:08.293Z,96612
2017-10-26T05:44:36.438Z,96594
2017-10-26T05:50:04.589Z,96593
2017-10-26T05:55:32.746Z,96589
2017-10-26T06:01:00.926Z,96594
2017-10-26T06:06:29.830Z,96593
2017-10-26T06:11:57.977Z,96582
2017-10-26T06:17:26.120Z,96581
2017-10-26T06:22:54.240Z,96582
2017-10-26T06:28:22.384Z,96587
2017-10-26T06:33:51.761Z,96572
2017-10-26T06:39:20.683Z,96579
2017-10-26T06:44:48.814Z,96573
2017-10-26T06:50:16.953Z,96579
2017-10-26T06:55:45.855Z,96571
2017-10-26T07:01:14.004Z,96573
2017-10-26T07:06:42.166Z,96587
2017-10-26T07:12:10.311Z,96572
2017-10-26T07:17:39.223Z,96572
2017-10-26T07:23:07.387Z,96576
2017-10-26T07:28:35.523Z,96581
2017-10-26T07:34:03.678Z,96595
2017-10-26T07:39:31.810Z,96591
2017-10-26T07:45:00.716Z,96585
2017-10-26T07:50:28.861Z,96589
2017-10-26T07:55:57.021Z,96586
2017-10-26T08:01:25.180Z,96581
2017-10-26T08:06:53.322Z,96586
2017-10-26T08:12:22.244Z,96594
2017-10-26T08:17:50.425Z,96574
2017-10-26T08:23:18.597Z,96579
2017-10-26T08:28:46.739Z,96585
2017-10-26T08:34:15.198Z,96585
2017-10-26T08:39:43.364Z,96573
2017-10-26T08:45:11.525Z,96573
2017-10-26T08:50:39.666Z,96561
2017-10-26T08:56:07.807Z,96550
2017-10-26T09:01:35.952Z,96545
2017-10-26T09:07:04.093Z,96548
2017-10-26T09:12:33.009Z,96556
2017-10-26T09:18:01.161Z,96547
2017-10-26T09:23:29.309Z,96547
2017-10-26T09:28:57.456Z,96543
2017-10-26T09:34:25.601Z,96548
2017-10-26T09:39:54.529Z,96549
2017-10-26T09:45:22.662Z,96542
2017-10-26T09:50:50.804Z,96548
2017-10-26T09:56:18.954Z,96562
2017-10-26T10:01:47.125Z,96556
2017-10-26T10:07:15.259Z,96557
2017-10-26T10:12:43.466Z,96547
2017-10-26T10:18:11.627Z,96542
2017-10-26T10:23:39.795Z,96542
2017-10-26T10:29:07.949Z,96539
2017-10-26T10:34:36.087Z,96522
2017-10-26T10:40:04.236Z,96511
2017-10-26T10:45:32.383Z,96510
2017-10-26T10:51:00.528Z,96501
2017-10-26T10:56:28.683Z,96492
2017-10-26T11:01:57.590Z,96477
2017-10-26T11:07:25.755Z,96478
2017-10-26T11:12:53.901Z,96473
2017-10-26T11:18:22.032Z,96473
2017-10-26T11:23:50.926Z,96471
2017-10-26T11:29:19.089Z,96467
2017-10-26T11:34:47.225Z,96466
2017-10-26T11:40:15.373Z,96462
2017-10-26T11:45:44.285Z,96460
2017-10-26T11:51:12.446Z,96458
2017-10-26T11:56:40.641Z,96467
2017-10-26T12:02:08.804Z,96457
2017-10-26T12:07:36.960Z,96466
2017-10-26T12:13:05.108Z,96446
2017-10-26T12:18:33.292Z,96447
2017-10-26T12:24:02.205Z,96437
2017-10-26T12:29:30.382Z,96429
2017-10-26T12:34:58.539Z,96421
2017-10-26T12:40:26.754Z,96418
2017-10-26T12:45:55.666Z,96417
2017-10-26T12:51:24.928Z,96408
2017-10-26T12:56:53.077Z,96407
2017-10-26T13:02:21.265Z,96393
2017-10-26T13:07:49.399Z,96398
2017-10-26T13:13:17.544Z,96399
2017-10-26T13:18:46.470Z,96407
2017-10-26T13:24:14.637Z,96402
2017-10-26T13:29:42.803Z,96408
2017-10-26T13:35:10.981Z,96398
2017-10-26T13:40:39.896Z,96406
2017-10-26T13:46:08.083Z,96397
2017-10-26T13:51:36.251Z,96389
2017-10-26T13:57:04.397Z,96389
2017-10-26T14:02:32.558Z,96369
2017-10-26T14:08:00.700Z,96378
2017-10-26T14:13:28.844Z,96357
2017-10-26T14:18:56.988Z,96375
2017-10-26T14:24:25.134Z,96388
2017-10-26T14:29:54.046Z,96388
2017-10-26T14:35:22.185Z,96369
2017-10-26T14:40:50.328Z,96369
2017-10-26T14:46:19.319Z,96370
2017-10-26T14:51:47.455Z,96359
2017-10-26T14:57:16.378Z,96366
2017-10-26T15:02:44.508Z,96377
2017-10-26T15:08:12.673Z,96387
2017-10-26T15:13:40.855Z,96387
2017-10-26T15:19:09.007Z,96388
2017-10-26T15:24:37.165Z,96395
2017-10-26T15:30:05.405Z,96380
2017-10-26T15:35:33.549Z,96370
2017-10-26T15:41:01.699Z,96374
2017-10-26T15:46:30.623Z,96370
2017-10-26T15:51:58.768Z,96386
2017-10-26T15:57:26.917Z,96386
2017-10-26T16:02:55.076Z,96384
2017-10-26T16:08:24.005Z,96399
2017-10-26T16:13:52.184Z,96396
2017-10-26T16:19:21.094Z,96403
2017-10-26T16:24:49.246Z,96398
2017-10-26T16:30:17.388Z,96404
2017-10-26T16:35:45.548Z,96408
2017-10-26T16:41:13.697Z,96398
2017-10-26T16:46:42.638Z,96413
2017-10-26T16:52:10.801Z,96412
2017-10-26T16:57:38.986Z,96415
2017-10-26T17:03:07.152Z,96412
2017-10-26T17:08:35.292Z,96414
2017-10-26T17:14:04.241Z,96435
2017-10-26T17:19:32.398Z,96433
2017-10-26T17:25:00.591Z,96441
2017-10-26T17:30:29.487Z,96437
2017-10-26T17:35:57.647Z,96431
2017-10-26T17:41:25.826Z,96426
2017-10-26T17:46:53.976Z,96431
2017-10-26T17:52:22.125Z,96417
2017-10-26T17:57:50.283Z,96420
2017-10-26T18:03:18.466Z,96413
2017-10-26T18:08:46.611Z,96412
2017-10-26T18:14:14.769Z,96409
2017-10-26T18:19:42.933Z,96414
2017-10-26T18:25:11.134Z,96421
2017-10-26T18:30:39.295Z,96405
2017-10-26T18:36:07.439Z,96412
2017-10-26T18:41:35.754Z,96414
2017-10-26T18:47:03.921Z,96415
2017-10-26T18:52:32.071Z,96418
2017-10-26T18:58:00.264Z,96417
2017-10-26T19:03:28.422Z,96401
2017-10-26T19:08:56.589Z,96396
2017-10-26T19:14:24.781Z,96404
2017-10-26T19:19:52.975Z,96392
2017-10-26T19:25:21.141Z,96394
2017-10-26T19:30:49.386Z,96388
2017-10-26T19:36:17.733Z,96389
2017-10-26T19:41:46.048Z,96382
2017-10-26T19:47:14.317Z,96367
2017-10-26T19:52:42.561Z,96379
2017-10-26T19:58:10.781Z,96368
2017-10-26T20:03:39.002Z,96372
2017-10-26T20:09:08.039Z,96355
2017-10-26T20:14:37.147Z,96358
2017-10-26T20:20:05.300Z,96344
2017-10-26T20:25:33.454Z,96336
2017-10-26T20:31:01.610Z,96333
2017-10-26T20:36:29.747Z,96324
2017-10-26T20:41:57.956Z,96338
2017-10-26T20:47:30.635Z,96321
2017-10-26T20:53:08.454Z,96323
2017-10-26T20:58:42.473Z,96321
2017-10-26T21:04:16.695Z,96310
2017-10-26T21:09:45.614Z,96303
2017-10-26T21:15:13.886Z,96316
2017-10-26T21:20:42.060Z,96304
2017-10-26T21:26:11.165Z,96293
2017-10-26T21:31:39.686Z,96283
2017-10-26T21:37:07.957Z,96289
2017-10-26T21:42:36.835Z,96280
2017-10-26T21:48:05.156Z,96281
2017-10-26T21:53:37.109Z,96278
2017-10-26T21:59:05.317Z,96278
2017-10-26T22:04:35.409Z,96270
2017-10-26T22:10:03.574Z,96264
2017-10-26T22:15:31.722Z,96262
2017-10-26T22:20:59.869Z,96253
2017-10-26T22:26:29.028Z,96250
2017-10-26T22:31:58.949Z,96247
2017-10-26T22:37:27.103Z,96240
2017-10-26T22:42:55.253Z,96237
2017-10-26T22:48:23.399Z,96233
2017-10-26T22:53:52.013Z,96227
2017-10-26T22:59:20.155Z,96211
2017-10-26T23:04:48.283Z,96208
2017-10-26T23:10:16.423Z,96205
2017-10-26T23:15:44.601Z,96204
2017-10-26T23:21:12.779Z,96212
2017-10-26T23:26:40.956Z,96196
2017-10-26T23:32:09.104Z,96188
2017-10-26T23:37:37.333Z,96182
2017-10-26T23:43:05.491Z,96166
2017-10-26T23:48:33.644Z,96171
2017-10-26T23:54:01.781Z,96158
2017-10-26T23:59:30.679Z,96160
